Time;durP1;ratioP1;P1;durP2;ratioP2;P2;SDS_P1;SDS_P2;PMS_P1;PMS_P2;Temp;Humidity;BMP_temperature;BMP_pressure;BME280_temperature;BME280_humidity;BME280_pressure;Samples;Min_cycle;Max_cycle;Signal;HPM_P1;HPM_P2
2021/03/03 00:02:14;;;;;;;23.85;14.50;;;;;;;4.67;68.73;103002.06;10285217;28;20070;-67
2021/03/03 00:07:10;;;;;;;26.27;14.90;;;;;;;4.61;68.79;103000.25;10309643;28;20053;-67
2021/03/03 00:12:08;;;;;;;26.08;14.65;;;;;;;4.55;68.50;102995.69;10284025;28;20844;-66
2021/03/03 00:17:04;;;;;;;24.90;14.18;;;;;;;4.53;68.42;102997.81;10291656;28;20166;-67
2021/03/03 00:22:03;;;;;;;24.30;14.32;;;;;;;4.46;68.62;102986.22;10303071;28;20079;-68
2021/03/03 00:26:59;;;;;;;23.10;13.93;;;;;;;4.42;69.07;102992.06;10289109;28;20045;-67
2021/03/03 00:31:55;;;;;;;21.73;12.88;;;;;;;4.33;69.27;102987.13;10290185;28;20150;-66
2021/03/03 00:36:52;;;;;;;27.70;14.63;;;;;;;4.31;69.23;102992.75;10306429;28;20040;-66
2021/03/03 00:41:48;;;;;;;22.92;14.45;;;;;;;4.18;69.41;102990.16;10293814;28;20036;-67
2021/03/03 00:46:44;;;;;;;27.52;14.38;;;;;;;4.07;69.40;102990.88;10315718;28;20048;-67
2021/03/03 00:51:40;;;;;;;25.45;13.82;;;;;;;4.05;69.27;102976.72;10288981;28;20052;-67
2021/03/03 00:56:36;;;;;;;25.50;14.57;;;;;;;4.00;69.85;102964.66;10287500;28;20094;-67
2021/03/03 01:01:32;;;;;;;24.60;14.48;;;;;;;3.98;69.97;102966.75;10291218;28;20394;-66
2021/03/03 01:06:28;;;;;;;26.10;15.32;;;;;;;3.95;70.25;102969.91;10289971;28;20044;-67
2021/03/03 01:11:24;;;;;;;26.08;14.35;;;;;;;3.88;70.22;102963.69;10294443;28;20056;-66
2021/03/03 01:16:20;;;;;;;26.23;15.20;;;;;;;3.84;70.65;102957.06;10289994;28;20046;-68
2021/03/03 01:21:16;;;;;;;27.40;16.60;;;;;;;3.82;71.10;102948.31;10283062;28;20045;-67
2021/03/03 01:26:12;;;;;;;26.80;15.15;;;;;;;3.79;70.25;102943.34;10301552;28;20044;-68
2021/03/03 01:31:08;;;;;;;26.90;15.23;;;;;;;3.74;70.68;102941.31;10304824;28;20048;-66
2021/03/03 01:36:04;;;;;;;28.05;16.00;;;;;;;3.68;70.74;102930.50;10289994;28;20060;-68
2021/03/03 01:41:00;;;;;;;27.98;15.60;;;;;;;3.66;71.17;102927.19;10299368;28;20102;-67
2021/03/03 01:45:56;;;;;;;27.15;15.20;;;;;;;3.60;71.62;102918.09;10307613;28;20090;-66
2021/03/03 01:50:53;;;;;;;27.15;15.70;;;;;;;3.58;70.79;102915.59;10306076;28;20049;-67
2021/03/03 01:55:49;;;;;;;28.42;15.82;;;;;;;3.56;70.45;102906.03;10288636;28;20109;-67
2021/03/03 02:00:45;;;;;;;28.80;15.48;;;;;;;3.52;70.69;102899.38;10280892;28;20448;-66
2021/03/03 02:05:44;;;;;;;26.15;15.88;;;;;;;3.51;71.29;102882.34;10294082;28;20047;-67
2021/03/03 02:11:08;;;;;;;25.27;14.43;;;;;;;3.49;71.67;102879.03;10282962;28;20135;-66
2021/03/03 02:16:07;;;;;;;30.27;16.67;;;;;;;3.39;71.65;102878.66;10300501;28;20519;-67
2021/03/03 02:21:15;;;;;;;30.52;16.80;;;;;;;3.31;71.78;102876.22;10292388;28;20048;-67
2021/03/03 02:26:13;;;;;;;25.98;15.02;;;;;;;3.26;71.87;102867.91;10297143;28;20098;-67
2021/03/03 02:31:13;;;;;;;26.58;15.18;;;;;;;3.23;71.63;102860.25;10294981;28;20101;-68
2021/03/03 02:36:11;;;;;;;26.52;14.30;;;;;;;3.16;71.12;102846.75;10295203;28;20048;-66
2021/03/03 02:41:09;;;;;;;30.52;16.52;;;;;;;3.17;71.50;102843.81;10293949;28;20140;-66
2021/03/03 02:46:06;;;;;;;28.27;16.52;;;;;;;3.07;71.94;102832.66;10294986;28;20044;-66
2021/03/03 02:51:03;;;;;;;26.90;15.57;;;;;;;3.01;72.02;102828.09;10308754;28;20068;-66
2021/03/03 02:55:59;;;;;;;31.17;16.88;;;;;;;2.94;72.35;102817.31;10297681;28;20051;-66
2021/03/03 03:00:59;;;;;;;27.40;15.30;;;;;;;2.94;71.92;102821.91;10293176;28;20735;-68
2021/03/03 03:06:03;;;;;;;26.48;14.88;;;;;;;2.90;72.63;102812.56;10306369;28;20043;-68
2021/03/03 03:11:02;;;;;;;31.23;16.67;;;;;;;2.84;72.47;102816.97;10304867;28;20055;-67
2021/03/03 03:15:59;;;;;;;30.67;16.05;;;;;;;2.78;72.42;102806.19;10290361;28;20048;-67
2021/03/03 03:20:57;;;;;;;31.95;16.77;;;;;;;2.76;72.93;102809.09;10290870;28;20155;-66
2021/03/03 03:25:57;;;;;;;31.73;16.27;;;;;;;2.66;72.35;102808.72;10300457;28;20044;-66
2021/03/03 03:30:54;;;;;;;28.60;16.20;;;;;;;2.69;72.01;102798.34;10301602;28;20040;-68
2021/03/03 03:35:51;;;;;;;30.88;17.52;;;;;;;2.56;73.03;102798.38;10296378;28;20083;-68
2021/03/03 03:40:47;;;;;;;29.02;16.38;;;;;;;2.55;73.37;102796.69;10295746;28;20040;-67
2021/03/03 03:45:43;;;;;;;28.02;15.30;;;;;;;2.49;73.12;102792.16;10303942;28;20083;-67
2021/03/03 03:50:39;;;;;;;27.27;15.93;;;;;;;2.43;72.90;102798.41;10290473;28;20102;-67
2021/03/03 03:55:37;;;;;;;33.40;16.67;;;;;;;2.39;72.89;102787.22;10296660;28;20055;-67
2021/03/03 04:00:33;;;;;;;32.28;15.75;;;;;;;2.34;72.59;102791.59;10297036;28;20102;-66
2021/03/03 04:05:29;;;;;;;28.13;16.20;;;;;;;2.24;73.31;102789.31;10301010;28;20400;-67
2021/03/03 04:10:28;;;;;;;30.50;16.50;;;;;;;2.19;73.10;102798.06;10290153;28;20102;-68
2021/03/03 04:15:24;;;;;;;31.60;16.98;;;;;;;2.17;73.20;102793.91;10293879;28;20572;-68
2021/03/03 04:20:21;;;;;;;28.40;16.40;;;;;;;2.11;73.15;102800.97;10300734;28;20044;-68
2021/03/03 04:25:18;;;;;;;28.23;16.20;;;;;;;2.10;73.57;102810.09;10292699;28;20059;-67
2021/03/03 04:30:17;;;;;;;31.08;17.17;;;;;;;2.20;73.20;102788.91;10307707;28;20036;-66
2021/03/03 04:35:18;;;;;;;32.70;17.85;;;;;;;2.39;75.14;102799.88;10297590;28;20056;-68
2021/03/03 04:40:15;;;;;;;27.98;15.60;;;;;;;2.37;75.71;102793.84;10312612;28;20505;-68
2021/03/03 04:45:11;;;;;;;34.97;17.48;;;;;;;2.30;76.28;102810.91;10287274;28;20132;-68
2021/03/03 04:50:09;;;;;;;40.45;17.63;;;;;;;2.39;76.88;102805.28;10304566;28;20121;-68
2021/03/03 04:55:06;;;;;;;45.40;17.50;;;;;;;2.41;77.25;102795.09;10300757;28;20070;-68
2021/03/03 05:00:04;;;;;;;39.72;15.75;;;;;;;2.52;76.78;102786.34;10303212;28;20132;-66
2021/03/03 05:05:00;;;;;;;38.03;16.52;;;;;;;2.49;77.01;102784.06;10305119;28;20048;-66
2021/03/03 05:09:56;;;;;;;70.05;16.63;;;;;;;2.45;77.30;102780.94;10298219;28;20045;-67
2021/03/03 05:14:52;;;;;;;35.80;16.20;;;;;;;2.44;76.79;102783.88;10288900;28;20048;-69
2021/03/03 05:19:48;;;;;;;46.70;16.95;;;;;;;2.31;77.50;102774.75;10284328;28;20102;-67
2021/03/03 05:24:44;;;;;;;49.17;16.65;;;;;;;2.13;78.50;102771.91;10286373;28;20136;-68
2021/03/03 05:29:40;;;;;;;36.58;16.70;;;;;;;2.29;78.22;102759.81;10300160;28;20564;-69
2021/03/03 05:34:37;;;;;;;50.22;17.42;;;;;;;2.31;77.97;102769.38;10305194;28;20044;-66
2021/03/03 05:39:33;;;;;;;54.80;18.13;;;;;;;2.39;77.84;102749.44;10289565;28;20071;-66
2021/03/03 05:44:29;;;;;;;34.20;17.90;;;;;;;2.50;77.15;102756.00;10276841;28;20056;-65
2021/03/03 05:49:26;;;;;;;29.30;16.52;;;;;;;2.46;77.55;102765.56;10284028;28;20048;-67
2021/03/03 05:54:22;;;;;;;75.93;18.35;;;;;;;2.47;76.57;102757.28;10282797;28;20045;-65
2021/03/03 05:59:18;;;;;;;50.13;16.67;;;;;;;2.38;76.17;102758.53;10290865;28;20065;-66
2021/03/03 06:04:14;;;;;;;32.88;15.63;;;;;;;2.50;76.22;102756.00;10292000;28;20052;-66
2021/03/03 06:09:10;;;;;;;28.10;14.32;;;;;;;2.56;75.42;102755.16;10296983;28;20399;-65
2021/03/03 06:14:07;;;;;;;24.83;14.05;;;;;;;2.53;75.38;102748.31;10285158;28;20040;-66
2021/03/03 06:19:03;;;;;;;31.02;13.82;;;;;;;2.46;75.92;102743.97;10289935;28;20090;-65
2021/03/03 06:24:00;;;;;;;32.17;14.18;;;;;;;2.49;76.01;102735.47;10290223;28;20041;-66
2021/03/03 06:28:56;;;;;;;24.20;12.50;;;;;;;2.35;74.99;102736.56;10275372;28;20036;-66
2021/03/03 06:34:08;;;;;;;22.38;12.10;;;;;;;2.34;75.58;102734.88;10280818;28;20041;-66
2021/03/03 06:39:17;;;;;;;24.13;12.70;;;;;;;2.42;75.49;102734.66;10284112;28;20068;-66
2021/03/03 06:44:14;;;;;;;27.95;12.50;;;;;;;2.30;75.62;102724.53;10284728;28;20053;-67
2021/03/03 06:49:23;;;;;;;28.52;12.00;;;;;;;2.34;74.90;102729.50;10295508;28;20044;-66
2021/03/03 06:54:22;;;;;;;30.63;13.00;;;;;;;2.27;75.05;102733.03;10294732;28;20048;-66
2021/03/03 06:59:30;;;;;;;30.23;14.20;;;;;;;2.22;75.83;102722.03;10320450;28;20036;-66
2021/03/03 07:09:49;;;;;;;28.83;14.93;;;;;;;2.16;76.50;102709.44;10428217;23;20171;-68
2021/03/03 07:15:06;;;;;;;25.98;14.38;;;;;;;2.29;77.24;102716.63;10208752;28;20403;-68
2021/03/03 07:20:08;;;;;;;26.77;12.60;;;;;;;2.13;77.57;102717.91;10208609;28;20038;-69
2021/03/03 07:25:13;;;;;;;29.77;15.48;;;;;;;2.34;76.78;102713.28;10249368;28;20153;-67
2021/03/03 07:30:16;;;;;;;29.05;15.07;;;;;;;2.33;77.19;102723.28;10211872;28;20387;-67
2021/03/03 07:35:13;;;;;;;26.33;15.07;;;;;;;2.27;76.56;102716.84;10204881;28;20491;-68
2021/03/03 07:40:12;;;;;;;28.35;15.15;;;;;;;2.35;76.39;102709.56;10213298;28;20099;-67
2021/03/03 07:45:13;;;;;;;33.63;17.00;;;;;;;2.46;76.80;102716.97;10204308;28;20570;-68
2021/03/03 07:50:18;;;;;;;29.60;16.20;;;;;;;2.57;76.31;102716.31;10198855;28;20100;-67
2021/03/03 07:55:14;;;;;;;29.88;15.98;;;;;;;2.54;76.77;102703.25;10209231;28;20057;-69
2021/03/03 08:00:25;;;;;;;33.58;16.55;;;;;;;2.48;77.30;102693.28;10217993;28;20045;-67
2021/03/03 08:05:27;;;;;;;24.95;14.93;;;;;;;2.69;76.84;102687.59;10209354;28;20115;-68
2021/03/03 08:10:24;;;;;;;31.42;15.70;;;;;;;2.81;76.44;102686.88;10205646;28;20048;-67
2021/03/03 08:15:41;;;;;;;33.63;18.25;;;;;;;2.80;76.44;102690.63;10218480;28;20072;-68
2021/03/03 08:20:40;;;;;;;39.13;19.05;;;;;;;2.83;76.29;102684.78;10215998;28;20133;-69
2021/03/03 08:25:46;;;;;;;32.72;19.15;;;;;;;2.89;75.97;102689.31;10224149;28;20046;-69
2021/03/03 08:31:02;;;;;;;35.83;18.52;;;;;;;2.92;76.31;102688.88;10220868;28;20561;-69
2021/03/03 08:35:58;;;;;;;34.65;18.13;;;;;;;2.98;77.36;102671.81;10232462;28;20050;-69
2021/03/03 08:41:14;;;;;;;30.40;17.45;;;;;;;3.07;76.64;102664.25;10210562;28;20037;-69
2021/03/03 08:46:19;;;;;;;41.63;20.25;;;;;;;3.16;77.91;102663.78;10191836;28;20129;-66
2021/03/03 08:51:24;;;;;;;33.45;18.60;;;;;;;3.38;78.02;102655.25;10196089;28;20046;-67
2021/03/03 08:56:43;;;;;;;32.97;18.80;;;;;;;3.59;77.83;102662.94;10208529;28;20038;-67
2021/03/03 09:02:07;;;;;;;38.15;18.85;;;;;;;3.96;76.15;102645.91;10202830;28;20085;-67
2021/03/03 09:07:12;;;;;;;32.58;18.20;;;;;;;4.18;76.32;102624.63;10199589;28;20044;-67
2021/03/03 09:12:10;;;;;;;34.17;19.48;;;;;;;4.51;76.10;102631.47;10199173;28;20084;-68
2021/03/03 09:17:09;;;;;;;35.20;18.25;;;;;;;4.79;75.48;102623.53;10201677;28;20135;-69
2021/03/03 09:22:19;;;;;;;32.80;18.35;;;;;;;5.12;74.78;102615.94;10200910;28;20065;-68
2021/03/03 09:27:16;;;;;;;32.85;18.63;;;;;;;5.35;74.34;102612.41;10195561;28;20133;-67
2021/03/03 09:32:20;;;;;;;35.22;18.52;;;;;;;5.53;73.56;102612.28;10206756;28;20042;-67
2021/03/03 09:37:17;;;;;;;34.90;18.17;;;;;;;5.80;72.38;102606.34;10201697;28;20065;-67
2021/03/03 09:42:13;;;;;;;35.15;18.15;;;;;;;6.03;72.63;102597.34;10195512;28;20049;-67
2021/03/03 09:47:10;;;;;;;29.83;17.10;;;;;;;6.27;70.38;102581.78;10206307;28;20138;-68
2021/03/03 09:52:06;;;;;;;30.48;18.17;;;;;;;6.68;70.30;102590.66;10192824;28;20041;-68
2021/03/03 09:57:07;;;;;;;31.52;15.90;;;;;;;7.05;68.42;102584.72;10217465;28;20050;-67
2021/03/03 10:02:05;;;;;;;29.30;16.13;;;;;;;7.40;67.51;102580.91;10212967;28;20041;-68
2021/03/03 10:07:02;;;;;;;32.25;16.30;;;;;;;7.65;65.82;102578.50;10218055;28;20042;-67
2021/03/03 10:11:58;;;;;;;26.90;15.73;;;;;;;8.18;65.07;102576.97;10205090;28;20041;-67
2021/03/03 10:17:00;;;;;;;21.98;13.70;;;;;;;8.60;62.51;102570.88;10193397;28;20041;-69
2021/03/03 10:21:58;;;;;;;25.23;14.40;;;;;;;8.97;61.46;102561.88;10204480;28;20053;-67
2021/03/03 10:26:54;;;;;;;32.55;16.83;;;;;;;9.42;60.60;102574.19;10191346;28;20117;-68
2021/03/03 10:31:50;;;;;;;24.98;14.73;;;;;;;9.72;60.14;102560.94;10201777;28;20038;-69
2021/03/03 10:36:46;;;;;;;26.85;15.48;;;;;;;9.72;58.55;102556.28;10222832;28;20041;-67
2021/03/03 10:41:42;;;;;;;26.02;15.75;;;;;;;9.61;58.77;102563.66;10208593;28;20048;-68
2021/03/03 10:46:44;;;;;;;36.88;16.88;;;;;;;9.79;58.14;102556.06;10213830;28;20541;-68
2021/03/03 10:51:41;;;;;;;25.55;16.73;;;;;;;9.92;58.85;102550.09;10210577;28;20069;-67
2021/03/03 10:56:41;;;;;;;28.58;16.63;;;;;;;9.95;57.83;102543.28;10222727;28;20481;-69
2021/03/03 11:01:43;;;;;;;28.75;16.85;;;;;;;10.20;58.53;102546.06;10227832;28;20120;-68
2021/03/03 11:06:40;;;;;;;32.40;16.90;;;;;;;10.26;56.49;102534.06;10214348;28;20069;-68
2021/03/03 11:11:55;;;;;;;28.92;16.63;;;;;;;10.53;56.57;102531.06;10213167;28;20083;-68
2021/03/03 11:16:51;;;;;;;26.77;16.05;;;;;;;10.56;56.16;102524.28;10204065;28;20070;-69
2021/03/03 11:21:48;;;;;;;31.33;16.35;;;;;;;10.86;55.80;102514.38;10205897;28;20061;-69
2021/03/03 11:26:45;;;;;;;28.83;17.30;;;;;;;10.94;54.76;102506.44;10211654;28;20041;-67
2021/03/03 11:31:43;;;;;;;30.55;16.80;;;;;;;11.24;54.42;102492.97;10197278;28;20553;-66
2021/03/03 11:36:39;;;;;;;26.38;16.25;;;;;;;11.34;53.94;102495.66;10205251;28;20080;-68
2021/03/03 11:41:36;;;;;;;27.65;16.25;;;;;;;11.72;54.60;102482.31;10196229;28;20073;-67
2021/03/03 11:46:33;;;;;;;34.25;16.42;;;;;;;12.06;52.61;102470.63;10202340;28;20076;-67
2021/03/03 11:51:29;;;;;;;29.02;17.33;;;;;;;12.36;52.23;102458.63;10210411;28;20045;-69
2021/03/03 11:56:40;;;;;;;29.52;16.85;;;;;;;12.75;51.01;102454.97;10202975;28;20049;-68
2021/03/03 12:01:36;;;;;;;32.95;16.50;;;;;;;12.56;50.91;102443.91;10210643;28;20108;-68
2021/03/03 12:06:33;;;;;;;33.20;16.75;;;;;;;12.36;50.92;102431.19;10199584;28;20041;-68
2021/03/03 12:11:29;;;;;;;27.67;17.00;;;;;;;12.57;50.63;102432.63;10203974;28;20048;-67
2021/03/03 12:16:25;;;;;;;32.03;16.95;;;;;;;12.35;50.47;102424.88;10206519;28;20125;-67
2021/03/03 12:21:22;;;;;;;33.17;16.23;;;;;;;12.21;50.98;102416.50;10198770;28;20104;-67
2021/03/03 12:26:18;;;;;;;35.17;17.63;;;;;;;12.15;51.25;102409.41;10204653;28;20403;-68
2021/03/03 12:31:14;;;;;;;35.33;16.77;;;;;;;13.19;49.84;102394.31;10206783;28;20130;-68
2021/03/03 12:36:10;;;;;;;30.65;17.05;;;;;;;13.97;47.59;102396.78;10206362;28;20443;-68
2021/03/03 12:41:06;;;;;;;29.70;17.10;;;;;;;14.58;47.02;102389.44;10203435;28;20092;-68
2021/03/03 12:46:02;;;;;;;31.17;17.48;;;;;;;15.06;44.25;102378.00;10203373;28;20045;-67
2021/03/03 12:50:59;;;;;;;33.42;17.45;;;;;;;15.58;42.73;102368.28;10203946;28;20160;-69
2021/03/03 12:55:55;;;;;;;30.27;16.63;;;;;;;15.68;42.53;102360.91;10200353;28;20677;-67
2021/03/03 13:00:51;;;;;;;30.33;15.85;;;;;;;16.14;41.02;102352.31;10203921;28;20091;-67
2021/03/03 13:05:47;;;;;;;30.25;18.23;;;;;;;16.14;41.95;102345.97;10201001;28;20041;-67
2021/03/03 13:10:43;;;;;;;33.85;19.67;;;;;;;15.33;42.22;102333.84;10195225;28;20451;-68
2021/03/03 13:15:39;;;;;;;31.52;18.55;;;;;;;15.83;41.47;102334.91;10200843;28;20498;-68
2021/03/03 13:20:36;;;;;;;33.58;17.98;;;;;;;15.97;42.42;102332.91;10209572;28;20575;-68
2021/03/03 13:25:32;;;;;;;28.98;17.65;;;;;;;16.16;41.84;102327.16;10188944;28;20415;-67
2021/03/03 13:30:28;;;;;;;31.98;17.85;;;;;;;16.58;40.33;102320.19;10205023;28;20045;-67
2021/03/03 13:35:25;;;;;;;28.20;16.45;;;;;;;16.65;40.46;102310.66;10200552;28;20095;-67
2021/03/03 13:40:21;;;;;;;37.88;20.73;;;;;;;16.94;39.25;102302.63;10212309;28;20053;-67
2021/03/03 13:45:18;;;;;;;39.10;18.42;;;;;;;16.73;39.83;102304.31;10216953;28;20049;-68
2021/03/03 13:50:14;;;;;;;33.22;17.20;;;;;;;16.01;41.30;102302.72;10199177;28;20057;-68
2021/03/03 13:55:10;;;;;;;36.38;19.60;;;;;;;15.77;41.96;102293.66;10200613;28;20483;-66
2021/03/03 14:00:08;;;;;;;34.72;19.20;;;;;;;15.71;42.59;102292.19;10205869;28;20041;-67
2021/03/03 14:05:06;;;;;;;42.42;19.15;;;;;;;15.87;42.42;102280.75;10200535;28;20049;-67
2021/03/03 14:10:03;;;;;;;30.05;18.63;;;;;;;15.99;41.95;102278.25;10219253;28;20502;-67
2021/03/03 14:15:02;;;;;;;37.97;20.95;;;;;;;15.48;43.41;102279.50;10243297;28;20053;-66
2021/03/03 14:20:01;;;;;;;35.63;18.77;;;;;;;15.68;43.46;102273.47;10197716;28;20045;-66
2021/03/03 14:24:57;;;;;;;35.95;19.27;;;;;;;15.82;43.65;102262.38;10213289;28;20054;-68
2021/03/03 14:29:53;;;;;;;30.52;19.15;;;;;;;15.59;43.52;102261.56;10204916;28;20034;-67
2021/03/03 14:34:49;;;;;;;33.00;19.45;;;;;;;15.85;43.88;102252.66;10188864;28;20041;-68
2021/03/03 14:39:45;;;;;;;36.03;19.52;;;;;;;15.80;43.47;102252.81;10190413;28;20446;-67
2021/03/03 14:44:41;;;;;;;39.25;20.42;;;;;;;15.67;43.55;102249.78;10202937;28;20132;-66
2021/03/03 14:49:37;;;;;;;38.67;23.00;;;;;;;15.07;44.71;102250.16;10200896;28;20038;-67
2021/03/03 14:54:34;;;;;;;36.78;21.48;;;;;;;14.73;46.07;102255.03;10183152;28;20049;-66
2021/03/03 14:59:34;;;;;;;40.42;23.20;;;;;;;14.43;46.66;102245.44;10207862;28;20046;-68
2021/03/03 15:04:36;;;;;;;39.92;25.33;;;;;;;14.05;47.81;102236.59;10208823;28;20054;-67
2021/03/03 15:09:32;;;;;;;45.15;25.20;;;;;;;13.88;48.77;102245.44;10209578;28;20525;-66
2021/03/03 15:14:29;;;;;;;39.05;23.95;;;;;;;13.51;49.00;102236.19;10191448;28;20495;-69
2021/03/03 15:19:25;;;;;;;43.97;25.55;;;;;;;13.59;49.51;102226.44;10193175;28;20042;-69
2021/03/03 15:24:21;;;;;;;46.20;25.08;;;;;;;13.22;49.27;102217.94;10203194;28;20141;-67
2021/03/03 15:29:17;;;;;;;42.78;25.63;;;;;;;13.16;48.46;102213.66;10220776;28;20038;-67
2021/03/03 15:34:13;;;;;;;41.95;22.67;;;;;;;13.00;48.28;102209.50;10223690;28;20569;-68
2021/03/03 15:39:10;;;;;;;44.90;25.65;;;;;;;12.86;48.71;102214.94;10213792;28;20049;-68
2021/03/03 15:44:06;;;;;;;45.28;26.42;;;;;;;12.63;50.20;102227.59;10205601;28;20539;-67
2021/03/03 15:49:02;;;;;;;48.80;28.17;;;;;;;12.45;51.33;102228.38;10217024;28;20137;-67
2021/03/03 15:53:59;;;;;;;51.67;28.98;;;;;;;12.13;53.22;102218.88;10208373;28;20048;-67
2021/03/03 15:58:58;;;;;;;50.88;30.42;;;;;;;11.85;54.31;102232.31;10189026;28;20135;-67
2021/03/03 16:03:54;;;;;;;60.58;30.67;;;;;;;11.74;54.33;102238.97;10198486;28;20056;-68
2021/03/03 16:08:51;;;;;;;59.10;32.95;;;;;;;11.36;56.41;102227.81;10203852;28;20527;-67
2021/03/03 16:14:04;;;;;;;64.60;37.97;;;;;;;11.20;56.70;102223.56;10210000;28;20045;-68
2021/03/03 16:19:00;;;;;;;65.28;36.72;;;;;;;11.12;58.41;102231.28;10203978;28;20053;-68
2021/03/03 16:23:58;;;;;;;72.97;42.55;;;;;;;10.98;59.48;102233.03;10208933;28;20507;-68
2021/03/03 16:28:54;;;;;;;59.75;36.33;;;;;;;10.76;60.85;102230.69;10209245;28;20042;-66
2021/03/03 16:33:50;;;;;;;64.50;36.00;;;;;;;10.58;60.96;102228.59;10216010;28;20133;-66
2021/03/03 16:38:51;;;;;;;59.05;35.38;;;;;;;10.62;60.96;102221.47;10201006;28;20453;-66
2021/03/03 16:43:48;;;;;;;77.95;36.55;;;;;;;10.24;62.29;102227.31;10211955;28;20050;-68
2021/03/03 16:48:44;;;;;;;57.88;33.33;;;;;;;10.38;62.75;102226.78;10206942;28;20042;-67
2021/03/03 16:53:41;;;;;;;56.10;36.13;;;;;;;10.23;62.34;102233.88;10205850;28;20053;-68
2021/03/03 16:58:37;;;;;;;54.83;36.83;;;;;;;10.08;63.46;102232.00;10200310;28;20111;-65
2021/03/03 17:03:33;;;;;;;64.25;38.13;;;;;;;9.53;65.58;102236.47;10218430;28;20097;-68
2021/03/03 17:08:29;;;;;;;60.42;37.33;;;;;;;9.67;65.16;102242.19;10197962;28;20144;-65
2021/03/03 17:13:26;;;;;;;50.63;33.28;;;;;;;9.39;66.58;102244.38;10213673;28;20458;-65
2021/03/03 17:18:22;;;;;;;57.40;38.20;;;;;;;9.32;67.10;102246.56;10187908;28;20046;-64
2021/03/03 17:23:18;;;;;;;54.35;36.13;;;;;;;8.90;68.51;102249.50;10225885;28;20528;-68
2021/03/03 17:28:14;;;;;;;52.22;36.55;;;;;;;8.75;69.26;102253.00;10211208;28;20049;-67
2021/03/03 17:33:10;;;;;;;54.65;37.97;;;;;;;8.46;70.49;102261.63;10206374;28;20079;-64
2021/03/03 17:38:07;;;;;;;59.25;37.10;;;;;;;8.38;70.48;102254.75;10192810;28;20116;-65
2021/03/03 17:43:03;;;;;;;60.17;36.92;;;;;;;8.10;71.74;102253.22;10195535;28;20215;-67
2021/03/03 17:47:59;;;;;;;56.03;37.50;;;;;;;7.76;72.91;102269.88;10194859;28;20172;-67
2021/03/03 17:52:57;;;;;;;52.00;33.67;;;;;;;7.69;72.77;102260.31;10199102;28;20046;-68
2021/03/03 17:57:54;;;;;;;58.08;38.55;;;;;;;7.73;72.64;102264.97;10191861;28;20104;-67
2021/03/03 18:02:50;;;;;;;53.13;33.50;;;;;;;7.34;74.04;102267.91;10191644;28;20084;-66
2021/03/03 18:07:47;;;;;;;55.30;34.85;;;;;;;7.25;74.35;102274.06;10183777;28;20045;-66
2021/03/03 18:12:43;;;;;;;60.20;39.17;;;;;;;7.23;74.19;102277.03;10211195;28;20050;-67
2021/03/03 18:17:40;;;;;;;69.85;40.90;;;;;;;7.21;74.37;102273.75;10184992;28;20104;-66
2021/03/03 18:22:37;;;;;;;62.83;40.85;;;;;;;7.13;74.48;102282.38;10205018;28;20553;-67
2021/03/03 18:27:33;;;;;;;64.80;42.60;;;;;;;7.00;75.04;102277.34;10197110;28;20442;-67
2021/03/03 18:32:29;;;;;;;61.53;38.50;;;;;;;7.12;74.67;102275.28;10196672;28;20058;-67
2021/03/03 18:37:26;;;;;;;53.63;34.90;;;;;;;6.69;75.59;102282.44;10197420;28;20727;-66
2021/03/03 18:42:24;;;;;;;59.85;37.72;;;;;;;6.30;77.08;102274.31;10204191;28;20091;-68
2021/03/03 18:47:20;;;;;;;62.67;34.80;;;;;;;6.31;76.82;102281.38;10190628;28;22512;-69
2021/03/03 18:52:16;;;;;;;60.42;37.80;;;;;;;6.24;76.52;102264.44;10217004;28;20050;-69
2021/03/03 18:57:12;;;;;;;56.17;36.22;;;;;;;6.46;75.95;102270.72;10213643;28;20045;-69
2021/03/03 19:02:09;;;;;;;65.90;39.60;;;;;;;5.98;76.93;102261.38;10200203;28;20085;-69
2021/03/03 19:07:06;;;;;;;58.30;35.83;;;;;;;5.65;79.20;102273.88;10215678;28;20045;-68
2021/03/03 19:12:05;;;;;;;61.67;37.30;;;;;;;5.32;79.28;102274.66;10210176;28;20112;-68
2021/03/03 19:17:03;;;;;;;57.63;35.58;;;;;;;5.21;80.73;102275.53;10206040;28;20495;-66
2021/03/03 19:22:00;;;;;;;69.00;42.05;;;;;;;5.22;80.45;102280.75;10207402;28;20041;-69
2021/03/03 19:26:56;;;;;;;63.90;36.03;;;;;;;5.28;79.94;102268.91;10204140;28;20046;-68
2021/03/03 19:31:52;;;;;;;67.57;41.40;;;;;;;4.75;82.54;102264.66;10195931;28;20045;-65
2021/03/03 19:36:48;;;;;;;66.55;36.63;;;;;;;4.70;82.10;102261.84;10200277;28;20046;-67
2021/03/03 19:41:44;;;;;;;68.22;39.78;;;;;;;4.97;81.07;102255.88;10212374;28;20045;-69
2021/03/03 19:46:51;;;;;;;62.70;38.35;;;;;;;4.83;81.84;102256.16;10210561;28;20072;-64
2021/03/03 19:51:48;;;;;;;56.30;29.83;;;;;;;4.74;81.03;102254.88;10196489;28;20050;-66
2021/03/03 19:56:44;;;;;;;63.95;36.95;;;;;;;4.84;81.08;102262.38;10205678;28;20103;-66
2021/03/03 20:01:41;;;;;;;63.30;28.88;;;;;;;4.52;81.64;102251.19;10214994;28;20454;-67
2021/03/03 20:06:37;;;;;;;59.45;32.55;;;;;;;4.54;81.91;102251.75;10208921;28;20055;-65
2021/03/03 20:11:33;;;;;;;64.28;39.00;;;;;;;4.45;82.97;102247.78;10214374;28;20522;-66
2021/03/03 20:16:29;;;;;;;67.03;40.15;;;;;;;4.50;82.62;102250.59;10203781;28;20052;-66
2021/03/03 20:21:26;;;;;;;72.35;36.42;;;;;;;4.37;83.73;102241.66;10197500;28;20073;-67
2021/03/03 20:26:23;;;;;;;70.65;40.58;;;;;;;4.48;83.60;102236.47;10200712;28;20097;-66
2021/03/03 20:31:19;;;;;;;66.93;38.45;;;;;;;4.65;82.94;102234.66;10197897;28;20104;-67
2021/03/03 20:36:16;;;;;;;76.18;38.97;;;;;;;4.23;84.86;102229.47;10208930;28;20092;-67
2021/03/03 20:41:12;;;;;;;89.30;45.15;;;;;;;4.36;84.14;102234.63;10211927;28;20050;-65
2021/03/03 20:46:08;;;;;;;58.55;31.48;;;;;;;4.30;84.15;102237.47;10203591;28;20430;-67
2021/03/03 20:51:05;;;;;;;94.40;50.78;;;;;;;4.25;84.22;102232.75;10201367;28;20044;-67
2021/03/03 20:56:01;;;;;;;81.82;43.45;;;;;;;4.03;85.27;102229.00;10198205;28;20042;-64
2021/03/03 21:00:58;;;;;;;76.90;39.20;;;;;;;4.06;85.42;102239.34;10203489;28;20120;-67
2021/03/03 21:05:54;;;;;;;88.32;47.40;;;;;;;4.17;84.98;102233.09;10203475;28;20103;-67
2021/03/03 21:10:50;;;;;;;93.50;47.20;;;;;;;4.03;86.19;102227.13;10200313;28;20521;-67
2021/03/03 21:15:46;;;;;;;81.57;45.67;;;;;;;4.39;84.61;102234.13;10207415;28;20504;-67
2021/03/03 21:20:43;;;;;;;91.28;43.17;;;;;;;4.06;85.84;102223.13;10204313;28;20072;-70
2021/03/03 21:25:39;;;;;;;81.22;40.90;;;;;;;4.04;85.12;102226.06;10192743;28;20125;-69
2021/03/03 21:30:35;;;;;;;87.38;44.97;;;;;;;4.07;85.26;102224.78;10191605;28;20080;-68
2021/03/03 21:35:34;;;;;;;79.65;41.15;;;;;;;4.12;84.67;102230.28;10202181;28;20176;-68
2021/03/03 21:40:30;;;;;;;70.93;36.40;;;;;;;4.19;83.88;102222.88;10202253;28;20092;-68
2021/03/03 21:45:26;;;;;;;73.03;37.65;;;;;;;4.16;83.56;102207.13;10196654;28;20397;-68
2021/03/03 21:50:23;;;;;;;70.88;35.08;;;;;;;3.99;83.50;102215.97;10205120;28;20057;-69
2021/03/03 21:55:19;;;;;;;69.78;35.47;;;;;;;3.76;83.94;102213.25;10197967;28;20420;-68
2021/03/03 22:00:15;;;;;;;73.07;34.67;;;;;;;3.71;83.89;102215.84;10205557;28;20052;-68
2021/03/03 22:05:12;;;;;;;68.40;32.72;;;;;;;3.90;83.70;102214.66;10204237;28;20483;-68
2021/03/03 22:10:09;;;;;;;67.25;32.65;;;;;;;4.04;82.78;102214.41;10207502;28;20525;-68
2021/03/03 22:15:05;;;;;;;51.10;23.17;;;;;;;3.97;81.80;102218.06;10217661;28;20071;-68
2021/03/03 22:20:03;;;;;;;49.53;21.05;;;;;;;3.67;83.31;102220.91;10199205;28;20049;-68
2021/03/03 22:25:00;;;;;;;69.00;32.05;;;;;;;3.79;82.71;102219.03;10197028;28;20050;-69
2021/03/03 22:29:56;;;;;;;72.70;35.33;;;;;;;3.91;82.84;102208.19;10202443;28;20061;-68
2021/03/03 22:34:52;;;;;;;68.05;32.67;;;;;;;4.02;82.40;102198.41;10211702;28;20458;-68